Portada
METAR-TAF:

METAR-TAF

Aeroports :

Hua Hin, Tailàndia

latitud: 12-35N, longitud: 099-57E, altitud: 5 m

Observació

L'informe es va fer fa 27 minuts, a les 23:00 UTC
Vent calma
Temperatura 27°C
Humitat 79%
Pressió 1008 hPa
Visibilitat: 9000 m
Escasses núvols a una alçada de 3200 ft

METAR: VTPH 292300Z 00000KT 9000 FEW032 27/23 Q1008 NOSIG

Hora: 06:27 (23:27 UTC)

Pronòstic

L'informe es va fer fa 6 hores i 27 minuts, a les 17:00 UTC
Pronòstic vàlid del 29 a les 18 UTC al 30 a les 18 UTC
Vent 5 kt del Sud-Oest
Visibilitat: 9000 m
Escasses núvols a una alçada de 3000 ft
Evolucionant progressivament
l' 30 a les 01 UTC al 30 a les 03 UTC
Vent 10 kt del Sud-Est
Evolucionant progressivament
l' 30 a les 13 UTC al 30 a les 15 UTC
Vent 5 kt del Sud-Oest

TAF: VTPH 291700Z 2918/3018 22005KT 9000 FEW030 BECMG 3001/3003 14010KT BECMG 3013/3015 22005KT

Observacions i pronòstics meteorològics de més de 4000 aeroports (METAR i TAF).

Les estacions disponibles són els punts grocs i vermells al mapa.

Posi el ratolí al punt desitjat per veure el nom de l'estació.

Feu clic per veure les observacions i els pronòstics meteorològics.

Per canviar el mapa: feu clic els botons verds amb una creu de color negre per apropar; al botó verd amb un guió per allunyar la imatge; o en les fletxes verdes per a mapes adjacents.


METAR-TAF: